Hauptseite
METAR-TAF:

METAR-TAF

Flughäfen :

Châlons-en-Champagne, Frankreich

Flughafen Châlons Vatry

Breite: 48-46-34N, Länge: 004-11-04E, Höhe: 179 m

Beobachtung

Neuester Wetterbericht von vor 27 Minuten, um 05:30 UTC
Wind 7 kt aus Südwest
Temperatur 5°C
Luftfeuchtigkeit 93%
Luftdruck 1020 hPa
Sichtweite 10 km oder mehr
keine Wolken unter 1500 m und keine Kumulonimbus oder Gewitterwolken

METAR: LFOK 260530Z AUTO 22007KT CAVOK 05/04 Q1020 NOSIG

Zeit: 07:57 (05:57 UTC)

Prognose

Neuester Wetterbericht von vor 57 Minuten, um 05:00 UTC
Gültige Prognose vom 26 um 06 UTC bis 27 um 06 UTC
Wind 12 kt aus West/Südwest
Sichtweite 10 km oder mehr
Aufgelockert bewölkt in der Höhe von 3000 ft
Übergehend zu
vom 26 um 18 UTC bis 26 um 20 UTC
Wind 2 kt aus unterschiedlichen Richtungen

TAF: LFOK 260500Z 2606/2706 25012KT 9999 SCT030 BECMG 2618/2620 VRB02KT

Wetterbeobachtungen und Prognosen von mehr als 4000 Flughäfen (METAR und TAF Bericht).

Die verfügbaren Stationen werden durch gelbe und rote Markierungen auf der Karte dargestellt.

Führen Sie die Maus auf sie, um den Namen der Station zu sehen.

Darauf klicken, um die Beobachtung von Wetterbeobachtungen und Prognosen zu sehen.

Um die Karte zu ändern : klicken Sie auf den grünen Tasten mit einem schwarzen Kreuz Zum Vergrößern, auf den grünen Button mit einem Gedankenstrich zu verkleinern, oder auf die grünen Pfeile für benachbarte Karten.


METAR-TAF: